createdAt,value
2017-02-02T00:00:51.824Z,1017.6
2017-02-02T00:02:57.677Z,1017.6
2017-02-02T00:04:01.124Z,1017.5
2017-02-02T00:05:04.066Z,1017.5
2017-02-02T00:06:07.515Z,1017.5
2017-02-02T00:07:10.290Z,1017.5
2017-02-02T00:08:13.734Z,1017.5
2017-02-02T00:09:16.679Z,1017.5
2017-02-02T00:10:19.622Z,1017.5
2017-02-02T00:11:23.074Z,1017.5
2017-02-02T00:12:26.015Z,1017.4
2017-02-02T00:13:29.296Z,1017.4
2017-02-02T00:14:32.245Z,1017.4
2017-02-02T00:15:35.527Z,1017.4
2017-02-02T00:16:38.473Z,1017.4
2017-02-02T00:17:41.754Z,1017.4
2017-02-02T00:18:44.699Z,1017.4
2017-02-02T00:19:48.148Z,1017.4
2017-02-02T00:20:51.092Z,1017.4
2017-02-02T00:21:54.537Z,1017.4
2017-02-02T00:22:57.483Z,1017.4
2017-02-02T00:24:00.431Z,1017.4
2017-02-02T00:25:03.878Z,1017.3
2017-02-02T00:26:06.657Z,1017.3
2017-02-02T00:27:10.102Z,1017.3
2017-02-02T00:28:13.041Z,1017.3
2017-02-02T00:29:16.321Z,1017.3
2017-02-02T00:30:19.262Z,1017.2
2017-02-02T00:31:22.710Z,1017.2
2017-02-02T00:32:25.655Z,1017.2
2017-02-02T00:33:28.605Z,1017.2
2017-02-02T00:34:32.048Z,1017.2
2017-02-02T00:35:34.993Z,1017.2
2017-02-02T00:36:38.441Z,1017.1
2017-02-02T00:37:41.384Z,1017.1
2017-02-02T00:38:44.347Z,1017.1
2017-02-02T00:39:47.823Z,1017.1
2017-02-02T00:40:50.779Z,1017.1
2017-02-02T00:41:54.059Z,1017
2017-02-02T00:42:57.003Z,1017
2017-02-02T00:43:59.951Z,1017
2017-02-02T00:45:03.399Z,1017.1
2017-02-02T00:46:06.346Z,1017
2017-02-02T00:47:09.623Z,1017
2017-02-02T00:48:12.570Z,1017
2017-02-02T00:49:16.023Z,1017
2017-02-02T00:50:18.993Z,1017
2017-02-02T00:51:21.939Z,1017
2017-02-02T00:52:25.391Z,1017
2017-02-02T00:53:28.672Z,1017
2017-02-02T00:54:31.639Z,1017
2017-02-02T00:55:34.583Z,1017
2017-02-02T00:56:38.034Z,1017
2017-02-02T00:57:40.980Z,1017
2017-02-02T00:58:43.921Z,1017
2017-02-02T00:59:47.369Z,1017
2017-02-02T01:00:50.316Z,1017
2017-02-02T01:01:53.765Z,1017
2017-02-02T01:03:59.857Z,1017
2017-02-02T01:05:02.803Z,1017.1
2017-02-02T01:06:06.269Z,1017
2017-02-02T01:07:09.213Z,1017
2017-02-02T01:08:12.163Z,1017
2017-02-02T01:09:15.614Z,1016.9
2017-02-02T01:11:21.979Z,1017
2017-02-02T01:12:24.925Z,1016.9
2017-02-02T01:13:27.869Z,1016.9
2017-02-02T01:14:31.317Z,1016.9
2017-02-02T01:15:34.265Z,1016.9
2017-02-02T01:16:37.206Z,1016.9
2017-02-02T01:17:40.655Z,1016.9
2017-02-02T01:18:43.603Z,1016.9
2017-02-02T01:19:47.049Z,1016.9
2017-02-02T01:20:50.015Z,1016.9
2017-02-02T01:21:53.303Z,1016.9
2017-02-02T01:22:56.244Z,1016.9
2017-02-02T01:23:59.191Z,1016.9
2017-02-02T01:25:02.645Z,1016.9
2017-02-02T01:27:08.666Z,1016.9
2017-02-02T01:28:12.115Z,1016.9
2017-02-02T01:29:15.055Z,1016.9
2017-02-02T01:30:18.003Z,1016.9
2017-02-02T01:32:24.361Z,1016.9
2017-02-02T01:33:27.811Z,1016.9
2017-02-02T01:34:30.754Z,1016.9
2017-02-02T01:35:33.698Z,1016.9
2017-02-02T01:37:40.058Z,1016.9
2017-02-02T01:38:43.512Z,1016.9
2017-02-02T01:39:46.456Z,1016.9
2017-02-02T01:40:49.396Z,1016.9
2017-02-02T01:41:52.845Z,1016.9
2017-02-02T01:42:55.789Z,1016.9
2017-02-02T01:43:59.069Z,1016.8
2017-02-02T01:45:02.013Z,1016.9
2017-02-02T01:46:04.965Z,1016.9
2017-02-02T01:47:08.414Z,1016.9
2017-02-02T01:48:11.398Z,1016.8
2017-02-02T01:49:14.843Z,1016.9
2017-02-02T01:50:17.788Z,1016.8
2017-02-02T01:51:20.728Z,1016.9
2017-02-02T01:52:24.175Z,1016.9
2017-02-02T01:53:27.121Z,1016.8
2017-02-02T01:54:30.070Z,1016.8
2017-02-02T01:55:33.522Z,1016.8
2017-02-02T01:56:36.466Z,1016.7
2017-02-02T01:57:39.912Z,1016.7
2017-02-02T01:58:42.855Z,1016.7
2017-02-02T01:59:45.803Z,1016.7
2017-02-02T02:00:49.086Z,1016.6
2017-02-02T02:01:52.031Z,1016.6
2017-02-02T02:02:55.483Z,1016.6
2017-02-02T02:03:58.424Z,1016.6
2017-02-02T02:05:01.369Z,1016.6
2017-02-02T02:06:04.816Z,1016.6
2017-02-02T02:07:07.756Z,1016.6
2017-02-02T02:08:10.872Z,1016.6
2017-02-02T02:09:14.322Z,1016.5
2017-02-02T02:10:17.263Z,1016.5
2017-02-02T02:11:20.233Z,1016.5
2017-02-02T02:12:23.677Z,1016.5
2017-02-02T02:13:26.456Z,1016.5
2017-02-02T02:14:29.909Z,1016.5
2017-02-02T02:15:32.851Z,1016.4
2017-02-02T02:16:36.296Z,1016.4
2017-02-02T02:17:39.241Z,1016.4
2017-02-02T02:18:42.186Z,1016.4
2017-02-02T02:19:45.629Z,1016.4
2017-02-02T02:20:48.579Z,1016.3
2017-02-02T02:21:51.531Z,1016.3
2017-02-02T02:22:54.978Z,1016.3
2017-02-02T02:23:57.923Z,1016.2
2017-02-02T02:25:01.371Z,1016.2
2017-02-02T02:26:04.323Z,1016.2
2017-02-02T02:27:07.265Z,1016.2
2017-02-02T02:28:10.374Z,1016.2
2017-02-02T02:29:13.827Z,1016.2
2017-02-02T02:30:16.771Z,1016.2
2017-02-02T02:31:20.223Z,1016.2
2017-02-02T02:32:23.169Z,1016.2
2017-02-02T02:33:26.111Z,1016
2017-02-02T02:34:29.393Z,1016
2017-02-02T02:35:32.337Z,1016.2
2017-02-02T02:36:35.785Z,1016
2017-02-02T02:37:38.730Z,1016
2017-02-02T02:38:41.675Z,1016
2017-02-02T02:39:45.125Z,1016
2017-02-02T02:40:48.398Z,1016
2017-02-02T02:41:51.345Z,1016
2017-02-02T02:42:54.293Z,1016
2017-02-02T02:45:00.649Z,1016
2017-02-02T02:46:03.626Z,1016
2017-02-02T02:47:07.074Z,1015.9
2017-02-02T02:48:10.044Z,1015.9
2017-02-02T02:49:13.516Z,1016
2017-02-02T02:50:16.463Z,1016
2017-02-02T02:51:19.405Z,1015.9
2017-02-02T02:52:22.851Z,1015.9
2017-02-02T02:53:25.792Z,1015.9
2017-02-02T02:54:29.071Z,1015.9
2017-02-02T02:55:32.017Z,1016
2017-02-02T02:56:35.469Z,1015.9
2017-02-02T02:57:38.421Z,1015.9
2017-02-02T02:58:41.370Z,1015.9
2017-02-02T02:59:44.816Z,1015.9
2017-02-02T03:00:47.758Z,1015.8
2017-02-02T03:01:50.697Z,1015.9
2017-02-02T03:02:54.143Z,1015.9
2017-02-02T03:03:57.086Z,1015.8
2017-02-02T03:05:00.539Z,1015.9
2017-02-02T03:06:03.483Z,1015.9
2017-02-02T03:07:06.429Z,1015.9
2017-02-02T03:08:09.876Z,1015.9
2017-02-02T03:09:12.824Z,1015.9
2017-02-02T03:10:16.270Z,1015.8
2017-02-02T03:11:19.046Z,1015.8
2017-02-02T03:12:22.492Z,1015.8
2017-02-02T03:13:25.439Z,1015.8
2017-02-02T03:14:28.409Z,1015.8
2017-02-02T03:15:31.856Z,1015.8
2017-02-02T03:16:34.830Z,1015.8
2017-02-02T03:17:37.775Z,1015.8
2017-02-02T03:18:41.222Z,1015.8
2017-02-02T03:19:44.162Z,1015.7
2017-02-02T03:20:47.611Z,1015.7
2017-02-02T03:21:50.556Z,1015.7
2017-02-02T03:22:53.500Z,1015.6
2017-02-02T03:23:56.946Z,1015.7
2017-02-02T03:24:59.888Z,1015.6
2017-02-02T03:26:03.339Z,1015.6
2017-02-02T03:27:06.282Z,1015.5
2017-02-02T03:28:09.245Z,1015.5
2017-02-02T03:29:12.693Z,1015.4
2017-02-02T03:31:19.049Z,1015.5
2017-02-02T03:32:21.998Z,1015.5
2017-02-02T03:33:24.943Z,1015.4
2017-02-02T03:34:28.390Z,1015.5
2017-02-02T03:35:31.356Z,1015.5
2017-02-02T03:36:34.327Z,1015.5
2017-02-02T03:37:37.804Z,1015.5
2017-02-02T03:38:40.745Z,1015.5
2017-02-02T03:39:43.688Z,1015.5
2017-02-02T03:40:47.139Z,1015.5
2017-02-02T03:41:50.085Z,1015.5
2017-02-02T03:42:53.561Z,1015.5
2017-02-02T03:43:56.505Z,1015.5
2017-02-02T03:44:59.445Z,1015.4
2017-02-02T03:46:02.897Z,1015.5
2017-02-02T03:47:05.845Z,1015.4
2017-02-02T03:48:08.789Z,1015.5
2017-02-02T03:49:12.238Z,1015.4
2017-02-02T03:50:15.183Z,1015.4
2017-02-02T03:51:18.632Z,1015.4
2017-02-02T03:52:21.604Z,1015.4
2017-02-02T03:53:24.882Z,1015.4
2017-02-02T03:54:27.826Z,1015.5
2017-02-02T03:55:30.780Z,1015.4
2017-02-02T03:56:34.231Z,1015.5
2017-02-02T03:57:37.183Z,1015.4
2017-02-02T03:58:40.634Z,1015.4
2017-02-02T03:59:43.583Z,1015.4
2017-02-02T04:00:46.527Z,1015.5
2017-02-02T04:01:49.980Z,1015.5
2017-02-02T04:02:52.934Z,1015.5
2017-02-02T04:03:55.884Z,1015.5
2017-02-02T04:04:59.338Z,1015.5
2017-02-02T04:06:02.288Z,1015.5
2017-02-02T04:07:05.740Z,1015.5
2017-02-02T04:08:08.684Z,1015.5
2017-02-02T04:09:11.654Z,1015.5
2017-02-02T04:10:15.106Z,1015.5
2017-02-02T04:11:17.884Z,1015.5
2017-02-02T04:12:21.336Z,1015.4
2017-02-02T04:13:24.285Z,1015.4
2017-02-02T04:14:27.238Z,1015.3
2017-02-02T04:15:30.689Z,1015.3
2017-02-02T04:16:33.637Z,1015.4
2017-02-02T04:17:37.084Z,1015.3
2017-02-02T04:18:40.026Z,1015.3
2017-02-02T04:19:42.973Z,1015.3
2017-02-02T04:20:46.421Z,1015.3
2017-02-02T04:21:49.362Z,1015.3
2017-02-02T04:22:52.312Z,1015.3
2017-02-02T04:23:55.761Z,1015.3
2017-02-02T04:24:58.707Z,1015.2
2017-02-02T04:26:02.153Z,1015.3
2017-02-02T04:27:05.099Z,1015.2
2017-02-02T04:28:08.047Z,1015.2
2017-02-02T04:29:11.494Z,1015.2
2017-02-02T04:30:14.438Z,1015.2
2017-02-02T04:31:17.384Z,1015.2
2017-02-02T04:32:20.834Z,1015.3
2017-02-02T04:33:24.113Z,1015.3
2017-02-02T04:34:26.890Z,1015.3
2017-02-02T04:35:30.337Z,1015.2
2017-02-02T04:36:33.304Z,1015.3
2017-02-02T04:37:36.249Z,1015.2
2017-02-02T04:38:39.700Z,1015.2
2017-02-02T04:39:42.644Z,1015.3
2017-02-02T04:40:45.589Z,1015.2
2017-02-02T04:41:49.041Z,1015.2
2017-02-02T04:42:52.321Z,1015.3
2017-02-02T04:43:55.292Z,1015.2
2017-02-02T04:44:58.236Z,1015.2
2017-02-02T04:46:01.519Z,1015.2
2017-02-02T04:47:04.465Z,1015.2
2017-02-02T04:48:07.915Z,1015.2
2017-02-02T04:49:11.077Z,1015.1
2017-02-02T04:50:14.026Z,1015.2
2017-02-02T04:51:16.982Z,1015.2
2017-02-02T04:52:20.433Z,1015.2
2017-02-02T04:53:23.397Z,1015.1
2017-02-02T04:54:26.709Z,1015.1
2017-02-02T04:55:29.679Z,1015.2
2017-02-02T04:56:32.629Z,1015.1
2017-02-02T04:57:36.079Z,1015.1
2017-02-02T04:58:39.026Z,1015.1
2017-02-02T04:59:42.481Z,1015.1
2017-02-02T05:00:45.422Z,1015.1
2017-02-02T05:01:48.367Z,1015.1
2017-02-02T05:02:51.818Z,1015.1
2017-02-02T05:03:54.765Z,1015
2017-02-02T05:04:57.716Z,1015.1
2017-02-02T05:06:01.167Z,1015
2017-02-02T05:07:04.448Z,1015.1
2017-02-02T05:08:07.397Z,1015
2017-02-02T05:09:10.674Z,1015
2017-02-02T05:10:13.628Z,1015
2017-02-02T05:11:16.571Z,1015
2017-02-02T05:12:20.019Z,1015
2017-02-02T05:13:22.964Z,1014.9
2017-02-02T05:14:26.246Z,1014.9
2017-02-02T05:15:29.215Z,1015
2017-02-02T05:16:32.658Z,1014.9
2017-02-02T05:17:35.604Z,1015
2017-02-02T05:18:38.547Z,1014.9
2017-02-02T05:19:41.995Z,1014.9
2017-02-02T05:20:44.940Z,1014.9
2017-02-02T05:21:47.909Z,1014.9
2017-02-02T05:22:51.358Z,1014.9
2017-02-02T05:24:57.710Z,1014.9
2017-02-02T05:26:00.680Z,1014.9
2017-02-02T05:27:03.623Z,1014.9
2017-02-02T05:28:07.075Z,1014.9
2017-02-02T05:29:10.021Z,1014.9
2017-02-02T05:30:13.476Z,1014.9
2017-02-02T05:31:16.421Z,1014.9
2017-02-02T05:32:19.372Z,1014.9
2017-02-02T05:34:25.735Z,1014.8
2017-02-02T05:35:29.185Z,1014.8
2017-02-02T05:36:32.128Z,1014.8
2017-02-02T05:37:35.073Z,1014.8
2017-02-02T05:38:38.525Z,1014.8
2017-02-02T05:39:41.469Z,1014.8
2017-02-02T05:40:44.447Z,1014.8
2017-02-02T05:42:50.839Z,1014.8
2017-02-02T05:43:54.294Z,1014.7
2017-02-02T05:44:57.242Z,1014.7
2017-02-02T05:46:00.189Z,1014.7
2017-02-02T05:47:03.639Z,1014.7
2017-02-02T05:48:06.586Z,1014.6
2017-02-02T05:49:10.035Z,1014.7
2017-02-02T05:50:12.815Z,1014.6
2017-02-02T05:51:16.262Z,1014.6
2017-02-02T05:52:19.208Z,1014.6
2017-02-02T05:53:22.156Z,1014.6
2017-02-02T05:54:25.631Z,1014.7
2017-02-02T05:55:28.577Z,1014.7
2017-02-02T05:56:32.023Z,1014.6
2017-02-02T05:57:34.964Z,1014.6
2017-02-02T05:58:37.908Z,1014.6
2017-02-02T05:59:41.381Z,1014.6
2017-02-02T06:00:44.330Z,1014.6
2017-02-02T06:01:47.298Z,1014.5
2017-02-02T06:02:50.745Z,1014.6
2017-02-02T06:03:53.691Z,1014.6
2017-02-02T06:04:57.138Z,1014.4
2017-02-02T06:06:00.081Z,1014.4
2017-02-02T06:07:25.168Z,1014.4
2017-02-02T06:08:27.613Z,1014.3
2017-02-02T06:09:30.558Z,1014.1
2017-02-02T06:11:35.911Z,1014.3
2017-02-02T06:12:38.865Z,1013
2017-02-02T06:13:41.312Z,1013
2017-02-02T06:14:44.265Z,1013.1
2017-02-02T06:15:46.711Z,1013.4
2017-02-02T06:16:50.135Z,1013.5
2017-02-02T06:17:52.426Z,1013
2017-02-02T06:18:54.867Z,1012.9
2017-02-02T06:19:57.822Z,1013.4
2017-02-02T06:21:00.271Z,1012.9
2017-02-02T06:22:03.223Z,1014.1
2017-02-02T06:23:05.660Z,1013.1
2017-02-02T06:25:11.017Z,1013.2
2017-02-02T06:26:13.465Z,1013.2
2017-02-02T06:27:15.905Z,1013.7
2017-02-02T06:28:18.848Z,1013.1
2017-02-02T06:29:21.287Z,1013.7
2017-02-02T06:31:26.645Z,1014
2017-02-02T06:32:29.090Z,1013.5
2017-02-02T06:35:36.851Z,1013.2
2017-02-02T06:36:39.294Z,1014
2017-02-02T06:37:42.240Z,1013.5
2017-02-02T06:38:44.517Z,1013.2
2017-02-02T06:39:47.463Z,1014.1
2017-02-02T06:40:49.903Z,1013.9
2017-02-02T06:41:52.380Z,1013.5
2017-02-02T06:42:54.825Z,1013.3
2017-02-02T06:43:57.773Z,1013.1
2017-02-02T06:45:00.221Z,1013.8
2017-02-02T06:46:02.663Z,1013.5
2017-02-02T06:47:05.107Z,1013.3
2017-02-02T06:48:07.549Z,1013
2017-02-02T06:49:10.329Z,1014.1
2017-02-02T06:50:12.781Z,1013.9
2017-02-02T06:51:15.247Z,1013.6
2017-02-02T06:52:18.195Z,1013.5
2017-02-02T06:53:20.632Z,1013.2
2017-02-02T06:54:23.077Z,1013.1
2017-02-02T06:55:25.519Z,1013
2017-02-02T06:56:28.294Z,1014.1
2017-02-02T06:57:30.567Z,1013.9
2017-02-02T06:58:33.514Z,1013.8
2017-02-02T06:59:35.956Z,1013.6
2017-02-02T07:00:38.421Z,1013.4
2017-02-02T07:01:40.866Z,1013.3
2017-02-02T07:03:46.212Z,1013
2017-02-02T07:04:48.654Z,1012.9
2017-02-02T07:05:51.098Z,1014.1
2017-02-02T07:07:55.943Z,1013.8
2017-02-02T07:08:58.890Z,1013.8
2017-02-02T07:10:01.351Z,1013.6
2017-02-02T07:11:03.796Z,1013.5
2017-02-02T07:13:08.644Z,1013.3
2017-02-02T07:14:11.095Z,1013.3
2017-02-02T07:15:14.042Z,1013.2
2017-02-02T07:16:16.315Z,1013.1
2017-02-02T07:17:18.761Z,1013
2017-02-02T07:18:21.200Z,1014.1
2017-02-02T07:19:24.004Z,1014
2017-02-02T07:20:26.446Z,1013.9
2017-02-02T07:21:28.891Z,1013.8
2017-02-02T07:22:31.674Z,1013.8
2017-02-02T07:23:34.121Z,1013.7
2017-02-02T07:24:36.565Z,1013.6
2017-02-02T07:25:39.010Z,1013.5
2017-02-02T07:26:41.455Z,1013.5
2017-02-02T07:27:43.897Z,1013.4
2017-02-02T07:28:46.877Z,1013.4
2017-02-02T07:29:49.344Z,1013.3
2017-02-02T07:30:51.792Z,1013.3
2017-02-02T07:31:54.233Z,1013.2
2017-02-02T07:32:56.677Z,1013.2
2017-02-02T07:33:59.119Z,1013.1
2017-02-02T07:35:01.567Z,1014.3
2017-02-02T07:36:04.020Z,1014.2
2017-02-02T07:38:09.371Z,1014.1
2017-02-02T07:39:11.837Z,1014.1
2017-02-02T07:40:14.280Z,1014.1
2017-02-02T07:41:16.725Z,1014
2017-02-02T07:42:19.167Z,1014
2017-02-02T07:43:22.116Z,1014
2017-02-02T07:44:24.562Z,1013.9
2017-02-02T07:45:27.025Z,1013.9
2017-02-02T07:46:29.469Z,1013.9
2017-02-02T07:47:31.912Z,1013.8
2017-02-02T07:48:34.352Z,1013.8
2017-02-02T07:50:39.537Z,1013.8
2017-02-02T07:51:41.857Z,1013.8
2017-02-02T07:52:44.294Z,1013.7
2017-02-02T07:53:46.735Z,1013.7
2017-02-02T07:54:49.679Z,1013.7
2017-02-02T07:55:52.124Z,1013.7
2017-02-02T07:56:54.565Z,1013.7
2017-02-02T07:57:57.007Z,1013.7
2017-02-02T07:58:59.449Z,1013.7
2017-02-02T08:00:01.891Z,1013.7
2017-02-02T08:01:04.335Z,1013.6
2017-02-02T08:02:07.115Z,1013.7
2017-02-02T08:03:09.391Z,1013.6
2017-02-02T08:04:11.829Z,1013.7
2017-02-02T08:05:14.443Z,1013.7
2017-02-02T08:06:17.216Z,1013.7
2017-02-02T08:07:19.659Z,1013.7
2017-02-02T08:08:22.099Z,1013.6
2017-02-02T08:09:24.543Z,1013.7
2017-02-02T08:10:27.007Z,1013.7
2017-02-02T08:11:29.474Z,1013.7
2017-02-02T08:12:31.924Z,1013.7
2017-02-02T08:13:34.703Z,1013.7
2017-02-02T08:14:37.147Z,1013.7
2017-02-02T08:15:39.593Z,1013.8
2017-02-02T08:16:42.040Z,1013.8
2017-02-02T08:17:44.486Z,1013.8
2017-02-02T08:18:46.933Z,1013.8
2017-02-02T08:19:49.880Z,1013.8
2017-02-02T08:20:52.318Z,1013.8
2017-02-02T08:21:54.764Z,1013.8
2017-02-02T08:22:57.047Z,1013.9
2017-02-02T08:23:59.488Z,1013.8
2017-02-02T08:25:02.430Z,1013.9
2017-02-02T08:26:04.873Z,1013.8
2017-02-02T08:27:07.330Z,1013.8
2017-02-02T08:28:09.615Z,1013.9
2017-02-02T08:29:12.063Z,1013.8
2017-02-02T08:30:15.012Z,1013.9
2017-02-02T08:31:17.456Z,1013.9
2017-02-02T08:32:19.898Z,1013.9
2017-02-02T08:33:22.339Z,1013.9
2017-02-02T08:34:24.780Z,1013.9
2017-02-02T08:35:27.222Z,1013.9
2017-02-02T08:36:30.000Z,1014
2017-02-02T08:38:34.850Z,1014
2017-02-02T08:39:37.294Z,1014
2017-02-02T08:40:40.074Z,1014
2017-02-02T08:41:42.514Z,1014
2017-02-02T08:42:44.962Z,1014.1
2017-02-02T08:43:47.433Z,1014
2017-02-02T08:44:49.882Z,1014.1
2017-02-02T08:45:52.324Z,1014
2017-02-02T08:46:54.770Z,1014.1
2017-02-02T08:47:57.214Z,1014.1
2017-02-02T08:49:00.160Z,1014.1
2017-02-02T08:50:02.608Z,1014.1
2017-02-02T08:51:05.077Z,1014.1
2017-02-02T08:52:07.519Z,1014.1
2017-02-02T08:54:12.368Z,1014.1
2017-02-02T08:55:14.818Z,1014.1
2017-02-02T08:56:17.265Z,1014.1
2017-02-02T08:57:20.212Z,1014.2
2017-02-02T08:58:22.653Z,1014.2
2017-02-02T08:59:25.104Z,1014.2
2017-02-02T09:00:27.546Z,1014.2
2017-02-02T09:01:30.015Z,1014.2
2017-02-02T09:02:32.460Z,1014.2
2017-02-02T09:03:34.906Z,1014.3
2017-02-02T09:04:37.356Z,1014.3
2017-02-02T09:05:40.135Z,1014.4
2017-02-02T09:06:42.579Z,1014.4
2017-02-02T09:07:45.026Z,1014.4
2017-02-02T09:08:47.472Z,1014.4
2017-02-02T09:09:49.912Z,1014.5
2017-02-02T09:10:52.692Z,1014.5
2017-02-02T09:12:57.539Z,1014.6
2017-02-02T09:13:59.988Z,1014.6
2017-02-02T09:15:02.429Z,1014.6
2017-02-02T09:16:05.377Z,1014.7
2017-02-02T09:17:07.665Z,1014.7
2017-02-02T09:18:10.018Z,1014.7
2017-02-02T09:20:15.369Z,1014.8
2017-02-02T09:21:17.811Z,1014.8
2017-02-02T09:22:20.256Z,1014.8
2017-02-02T09:23:22.705Z,1014.9
2017-02-02T09:24:25.147Z,1014.9
2017-02-02T09:25:27.587Z,1014.9
2017-02-02T09:26:30.537Z,1014.9
2017-02-02T09:27:32.982Z,1014.9
2017-02-02T09:28:35.260Z,1014.9
2017-02-02T09:29:37.706Z,1014.9
2017-02-02T09:30:40.146Z,1014.9
2017-02-02T09:31:43.093Z,1014.9
2017-02-02T09:32:45.366Z,1015
2017-02-02T09:33:48.142Z,1015
2017-02-02T09:34:50.587Z,1015
2017-02-02T09:35:53.032Z,1015
2017-02-02T09:36:55.477Z,1015
2017-02-02T09:37:57.755Z,1015
2017-02-02T09:39:00.718Z,1015
2017-02-02T09:40:03.162Z,1015
2017-02-02T09:41:05.438Z,1015
2017-02-02T09:42:07.888Z,1015
2017-02-02T09:43:10.498Z,1015.1
2017-02-02T09:44:12.941Z,1015.1
2017-02-02T09:45:15.388Z,1015.1
2017-02-02T09:46:17.837Z,1015.1
2017-02-02T09:47:20.810Z,1015.1
2017-02-02T09:48:23.257Z,1015.1
2017-02-02T09:49:25.704Z,1015.2
2017-02-02T09:50:28.141Z,1015.1
2017-02-02T09:51:30.417Z,1015.1
2017-02-02T09:52:33.366Z,1015.2
2017-02-02T09:53:35.814Z,1015.1
2017-02-02T09:54:38.254Z,1015.2
2017-02-02T09:55:40.536Z,1015.2
2017-02-02T09:56:43.008Z,1015.2
2017-02-02T09:57:45.953Z,1015.2
2017-02-02T09:58:48.397Z,1015.1
2017-02-02T09:59:50.842Z,1015.1
2017-02-02T10:00:53.285Z,1015.2
2017-02-02T10:01:55.737Z,1015.2
2017-02-02T10:02:58.178Z,1015.2
2017-02-02T10:04:00.627Z,1015.2
2017-02-02T10:05:03.574Z,1015.2
2017-02-02T10:06:05.686Z,1015.3
2017-02-02T10:07:08.465Z,1015.3
2017-02-02T10:08:10.910Z,1015.4
2017-02-02T10:09:13.356Z,1015.4
2017-02-02T10:10:15.805Z,1015.6
2017-02-02T10:11:18.254Z,1015.6
2017-02-02T10:12:20.722Z,1015.6
2017-02-02T10:13:23.671Z,1015.7
2017-02-02T10:14:26.113Z,1015.7
2017-02-02T10:15:28.552Z,1015.8
2017-02-02T10:16:30.997Z,1015.6
2017-02-02T10:17:33.438Z,1015.6
2017-02-02T10:18:35.891Z,1015.6
2017-02-02T10:19:38.337Z,1015.7
2017-02-02T10:20:41.286Z,1015.7
2017-02-02T10:21:43.725Z,1015.5
2017-02-02T10:22:46.003Z,1015.6
2017-02-02T10:23:48.447Z,1015.5
2017-02-02T10:24:51.394Z,1015.6
2017-02-02T10:25:53.671Z,1015.6
2017-02-02T10:26:56.134Z,1015.3
2017-02-02T10:27:58.587Z,1015.4
2017-02-02T10:29:01.028Z,1015.4
2017-02-02T10:30:03.975Z,1015.5
2017-02-02T10:31:06.440Z,1015.6
2017-02-02T10:32:08.722Z,1015.1
2017-02-02T10:33:11.499Z,1015.2
2017-02-02T10:34:13.940Z,1015.2
2017-02-02T10:35:16.386Z,1015.3
2017-02-02T10:36:18.831Z,1015.4
2017-02-02T10:37:21.277Z,1015.5
2017-02-02T10:38:23.728Z,1015.2
2017-02-02T10:39:26.691Z,1015.3
2017-02-02T10:40:29.138Z,1015.1
2017-02-02T10:41:31.583Z,1015.1
2017-02-02T10:42:34.030Z,1015.2
2017-02-02T10:43:36.468Z,1015.2
2017-02-02T10:44:38.939Z,1015.1
2017-02-02T10:45:41.379Z,1015.3
2017-02-02T10:46:44.324Z,1015.1
2017-02-02T10:47:46.771Z,1015.2
2017-02-02T10:48:49.213Z,1015.1
2017-02-02T10:49:51.664Z,1015.2
2017-02-02T10:50:54.104Z,1015
2017-02-02T10:51:56.548Z,1015.1
2017-02-02T10:52:58.995Z,1015.2
2017-02-02T10:54:01.778Z,1015.2
2017-02-02T10:55:04.219Z,1015
2017-02-02T10:56:06.664Z,1015.1
2017-02-02T10:57:09.444Z,1015.1
2017-02-02T10:58:11.893Z,1015.1
2017-02-02T10:59:14.343Z,1015.1
2017-02-02T11:00:16.815Z,1015.1
2017-02-02T11:01:19.258Z,1015.1
2017-02-02T11:02:22.203Z,1015.1
2017-02-02T11:03:24.649Z,1015.1
2017-02-02T11:04:27.089Z,1015.1
2017-02-02T11:05:29.533Z,1015.1
2017-02-02T11:06:32.313Z,1015.2
2017-02-02T11:07:34.784Z,1015
2017-02-02T11:08:37.280Z,1015
2017-02-02T11:09:39.725Z,1015
2017-02-02T11:10:42.171Z,1015.1
2017-02-02T11:11:44.620Z,1015.1
2017-02-02T11:12:47.064Z,1014.9
2017-02-02T11:13:50.013Z,1014.9
2017-02-02T11:14:52.457Z,1015
2017-02-02T11:15:54.898Z,1015
2017-02-02T11:16:57.344Z,1014.9
2017-02-02T11:17:59.785Z,1014.9
2017-02-02T11:19:02.732Z,1014.9
2017-02-02T11:20:05.182Z,1014.9
2017-02-02T11:21:07.627Z,1014.9
2017-02-02T11:22:10.238Z,1014.9
2017-02-02T11:24:15.098Z,1014.9
2017-02-02T11:25:17.873Z,1014.9
2017-02-02T11:26:20.323Z,1014.9
2017-02-02T11:27:22.765Z,1014.9
2017-02-02T11:28:25.209Z,1014.9
2017-02-02T11:29:27.654Z,1015
2017-02-02T11:30:30.104Z,1015
2017-02-02T11:31:33.106Z,1014.8
2017-02-02T11:32:35.581Z,1014.8
2017-02-02T11:33:38.023Z,1014.8
2017-02-02T11:34:40.467Z,1014.8
2017-02-02T11:35:42.935Z,1014.7
2017-02-02T11:36:45.376Z,1014.6
2017-02-02T11:37:47.821Z,1014.7
2017-02-02T11:38:50.765Z,1014.7
2017-02-02T11:39:53.215Z,1014.7
2017-02-02T11:40:55.700Z,1014.8
2017-02-02T11:41:58.143Z,1014.6
2017-02-02T11:43:00.587Z,1014.6
2017-02-02T11:44:03.031Z,1014.7
2017-02-02T11:45:05.979Z,1014.8
2017-02-02T11:46:08.439Z,1014.6
2017-02-02T11:47:10.715Z,1014.7
2017-02-02T11:48:13.157Z,1014.8
2017-02-02T11:49:16.101Z,1014.6
2017-02-02T11:50:18.544Z,1014.8
2017-02-02T11:51:20.993Z,1014.6
2017-02-02T11:52:23.441Z,1014.7
2017-02-02T11:53:25.887Z,1014.6
2017-02-02T11:54:28.838Z,1014.7
2017-02-02T11:55:31.280Z,1014.5
2017-02-02T11:56:33.724Z,1014.6
2017-02-02T11:58:38.572Z,1014.6
2017-02-02T11:59:41.526Z,1014.4
2017-02-02T12:00:43.972Z,1014.5
2017-02-02T12:01:46.251Z,1014.6
2017-02-02T12:02:49.094Z,1014.4
2017-02-02T12:03:51.536Z,1014.5
2017-02-02T12:04:53.981Z,1014.5
2017-02-02T12:05:56.426Z,1014.3
2017-02-02T12:06:58.871Z,1014.3
2017-02-02T12:09:04.230Z,1014.4
2017-02-02T12:10:06.508Z,1014.3
2017-02-02T12:11:09.292Z,1014.4
2017-02-02T12:12:11.741Z,1014.2
2017-02-02T12:13:14.185Z,1014.2
2017-02-02T12:14:16.630Z,1014.4
2017-02-02T12:16:21.984Z,1014.2
2017-02-02T12:17:24.428Z,1014.2
2017-02-02T12:18:26.874Z,1014.2
2017-02-02T12:19:29.816Z,1014.3
2017-02-02T12:20:31.990Z,1014.3
2017-02-02T12:21:34.435Z,1014.1
2017-02-02T12:22:37.406Z,1014
2017-02-02T12:23:39.852Z,1014.1
2017-02-02T12:24:42.296Z,1014.2
2017-02-02T12:25:44.741Z,1014.1
2017-02-02T12:26:47.519Z,1014.1
2017-02-02T12:27:49.794Z,1014.1
2017-02-02T12:28:52.234Z,1014
2017-02-02T12:29:55.176Z,1014
2017-02-02T12:30:57.623Z,1014
2017-02-02T12:32:00.073Z,1014
2017-02-02T12:33:02.521Z,1014
2017-02-02T12:34:05.301Z,1014
2017-02-02T12:35:07.749Z,1014
2017-02-02T12:36:10.369Z,1014
2017-02-02T12:37:12.985Z,1014
2017-02-02T12:38:15.429Z,1014
2017-02-02T12:39:17.875Z,1014
2017-02-02T12:40:20.320Z,1013.9
2017-02-02T12:41:22.785Z,1013.9
2017-02-02T12:42:25.729Z,1014
2017-02-02T12:43:28.170Z,1014
2017-02-02T12:44:30.612Z,1014
2017-02-02T12:45:33.251Z,1013.8
2017-02-02T12:46:35.695Z,1013.8
2017-02-02T12:47:38.168Z,1013.9
2017-02-02T12:48:40.638Z,1013.9
2017-02-02T12:50:45.990Z,1013.9
2017-02-02T12:51:48.270Z,1013.9
2017-02-02T12:52:51.217Z,1013.9
2017-02-02T12:53:53.493Z,1013.9
2017-02-02T12:54:56.273Z,1013.9
2017-02-02T12:55:58.716Z,1013.8
2017-02-02T12:57:01.156Z,1013.9
2017-02-02T12:58:03.606Z,1013.9
2017-02-02T12:59:06.050Z,1013.9
2017-02-02T13:00:08.994Z,1013.9
2017-02-02T13:01:11.465Z,1013.9
2017-02-02T13:02:13.908Z,1013.8
2017-02-02T13:03:16.364Z,1013.9
2017-02-02T13:04:18.809Z,1013.8
2017-02-02T13:06:24.164Z,1013.8
2017-02-02T13:07:26.608Z,1013.8
2017-02-02T13:08:29.061Z,1013.7
2017-02-02T13:09:31.502Z,1013.7
2017-02-02T13:10:34.455Z,1013.7
2017-02-02T13:11:36.905Z,1013.7
2017-02-02T13:12:39.353Z,1013.7
2017-02-02T13:13:41.801Z,1013.7
2017-02-02T13:14:44.270Z,1013.7
2017-02-02T13:15:47.215Z,1013.6
2017-02-02T13:16:49.656Z,1013.6
2017-02-02T13:17:52.276Z,1013.6
2017-02-02T13:18:54.743Z,1013.6
2017-02-02T13:19:57.026Z,1013.6
2017-02-02T13:22:02.381Z,1013.5
2017-02-02T13:23:04.825Z,1013.5
2017-02-02T13:24:07.107Z,1013.5
2017-02-02T13:25:09.720Z,1013.4
2017-02-02T13:26:12.670Z,1013.4
2017-02-02T13:27:15.113Z,1013.5
2017-02-02T13:28:17.388Z,1013.4
2017-02-02T13:29:19.828Z,1013.5
2017-02-02T13:30:22.781Z,1013.5
2017-02-02T13:31:25.226Z,1013.5
2017-02-02T13:32:27.695Z,1013.5
2017-02-02T13:33:30.140Z,1013.5
2017-02-02T13:34:32.588Z,1013.4
2017-02-02T13:36:37.938Z,1013.4
2017-02-02T13:38:42.783Z,1013.5
2017-02-02T13:40:48.134Z,1013.5
2017-02-02T13:41:50.582Z,1013.5
2017-02-02T13:42:53.024Z,1013.5
2017-02-02T13:43:55.468Z,1013.5
2017-02-02T13:44:58.416Z,1013.5
2017-02-02T13:46:00.857Z,1013.6
2017-02-02T13:47:03.321Z,1013.5